Wetterdaten: aktuell Mittwoch, 22.03.2017 21:00
Datum Zeit Temp. A. Feuchte A. Luftdruck Regen Wind Richtung Richtung Sonnenschein ET UV Solar Taupunkt Windchill Windben
22.03.2017 21:00 7,5 C 75 % 1016,7 hPa 0,0 l/m 3,1 km/h (1 Bft) O-SO 103 0 min 0,026 mm 0,0 UV-I 0 W/m 3,4 C 7,5 C 12,9 km/h (3 Bft)
22.03.2017 20:00 7,6 C 77 % 1016,8 hPa 0,0 l/m 4,6 km/h (1 Bft) O 95 0 min 0,025 mm 0,0 UV-I 0 W/m 3,8 C 7,6 C 14,5 km/h (3 Bft)
22.03.2017 19:00 7,7 C 77 % 1016,8 hPa 0,2 l/m 4,5 km/h (1 Bft) O-NO 71 0 min 0,026 mm 0,0 UV-I 0 W/m 3,9 C 7,7 C 12,9 km/h (3 Bft)
22.03.2017 18:00 8,6 C 68 % 1016,6 hPa 0,0 l/m 4,4 km/h (1 Bft) O-NO 76 0 min 0,050 mm 0,0 UV-I 0 W/m 3,0 C 8,6 C 12,9 km/h (3 Bft)
22.03.2017 17:00 9,2 C 66 % 1016,3 hPa 0,0 l/m 6,1 km/h (2 Bft) O-NO 74 0 min 0,153 mm 0,0 UV-I 35 W/m 3,2 C 9,2 C 12,9 km/h (3 Bft)
22.03.2017 16:00 10,1 C 58 % 1016,4 hPa 0,0 l/m 4,1 km/h (1 Bft) O-SO 123 15 min 0,178 mm 0,7 UV-I 134 W/m 2,2 C 10,1 C 11,3 km/h (2 Bft)
22.03.2017 15:00 10,5 C 57 % 1016,4 hPa 0,0 l/m 7,8 km/h (2 Bft) O 88 35 min 0,177 mm 1,4 UV-I 322 W/m 2,3 C 9,5 C 19,3 km/h (3 Bft)
22.03.2017 14:00 10,2 C 64 % 1016,8 hPa 0,0 l/m 5,3 km/h (1 Bft) O-NO 63 15 min 0,204 mm 1,5 UV-I 279 W/m 3,7 C 10,2 C 12,9 km/h (3 Bft)
22.03.2017 13:00 9,9 C 67 % 1017,2 hPa 0,0 l/m 3,9 km/h (1 Bft) O 91 15 min 0,177 mm 1,9 UV-I 315 W/m 4,1 C 9,9 C 12,9 km/h (3 Bft)
22.03.2017 12:00 9,5 C 70 % 1017,2 hPa 0,0 l/m 5,9 km/h (2 Bft) O 91 35 min 0,254 mm 2,0 UV-I 401 W/m 4,3 C 9,5 C 14,5 km/h (3 Bft)
22.03.2017 11:00 9,1 C 70 % 1017,3 hPa 0,0 l/m 4,1 km/h (1 Bft) O 98 55 min 0,153 mm 1,8 UV-I 355 W/m 3,9 C 9,1 C 12,9 km/h (3 Bft)
22.03.2017 10:00 8,6 C 72 % 1017,3 hPa 0,0 l/m 5,0 km/h (1 Bft) O 88 30 min 0,051 mm 2,2 UV-I 649 W/m 3,8 C 8,6 C 12,9 km/h (3 Bft)
22.03.2017 09:00 5,7 C 78 % 1016,9 hPa 0,0 l/m 1,5 km/h (1 Bft) O-NO 58 0 min 0,025 mm 1,0 UV-I 185 W/m 2,2 C 5,7 C 4,8 km/h (1 Bft)
22.03.2017 08:00 3,7 C 86 % 1017,0 hPa 0,0 l/m 0,0 km/h (0 Bft) N 9 10 min 0,000 mm 0,6 UV-I 151 W/m 1,6 C 3,7 C 0,0 km/h (0 Bft)
22.03.2017 07:00 2,1 C 88 % 1016,6 hPa 0,0 l/m 0,0 km/h (0 Bft) N 9 0 min 0,000 mm 0,0 UV-I 33 W/m 0,3 C 2,1 C 0,0 km/h (0 Bft)
22.03.2017 06:00 2,4 C 87 % 1016,2 hPa 0,0 l/m 0,0 km/h (0 Bft) N 9 0 min 0,000 mm 0,0 UV-I 0 W/m 0,5 C 2,4 C 0,0 km/h (0 Bft)
22.03.2017 05:00 3,1 C 88 % 1015,8 hPa 0,0 l/m 0,0 km/h (0 Bft) N 0 0 min 0,000 mm 0,0 UV-I 0 W/m 1,3 C 3,1 C 0,0 km/h (0 Bft)
22.03.2017 04:00 4,1 C 89 % 1015,7 hPa 0,0 l/m 0,0 km/h (0 Bft) N 0 0 min 0,000 mm 0,0 UV-I 0 W/m 2,5 C 4,1 C 0,0 km/h (0 Bft)
22.03.2017 03:00 4,8 C 90 % 1015,3 hPa 0,0 l/m 0,0 km/h (0 Bft) N 0 0 min 0,000 mm 0,0 UV-I 0 W/m 3,3 C 4,8 C 0,0 km/h (0 Bft)
22.03.2017 02:00 5,2 C 89 % 1015,3 hPa 0,0 l/m 0,0 km/h (0 Bft) N 0 0 min 0,000 mm 0,0 UV-I 0 W/m 3,5 C 5,2 C 0,0 km/h (0 Bft)
22.03.2017 01:00 5,3 C 88 % 1015,1 hPa 0,0 l/m 0,0 km/h (0 Bft) S-SO 157 0 min 0,000 mm 0,0 UV-I 0 W/m 3,5 C 5,3 C 1,6 km/h (1 Bft)
22.03.2017 00:00 5,4 C 88 % 1014,3 hPa 0,0 l/m 0,0 km/h (0 Bft) S-SO 157 0 min 0,000 mm 0,0 UV-I 0 W/m 3,6 C 5,4 C 1,6 km/h (1 Bft)
_ Min-Zeit 07:00 16:05 00:00 - 00:00 - - - - - - 06:40 07:00 00:05
Minimum _ 2,1 C 55 % 1014,3 hPa - 0,0 km/h (0 Bft) - - - - - - 0,3 C 2,1 C 0,0 km/h (0 Bft)
_ Max-Zeit 13:25 02:30 10:25 18:40 15:30 - - 07:05 11:05 12:40 12:40 12:10 13:25 14:40
Maximum _ 10,7 C 90 % 1017,5 hPa 0,2 l/m 12,3 km/h
NO (3 Bft)
- - 5 min 0,254 mm 2,9 UV-I 710 W/m 5,0 C 10,7 C 24,1 km/h
O (4 Bft)
Durchschnitt _ 6,9 C 77 % 1016,4 hPa #0,2 l/m 2,9 km/h (1 Bft) O - #3:30 h #1,499 mm 1,5 UV-I 238 W/m 2,9 C 6,8 C 7,8 km/h (2 Bft)